createdAt,value
2017-09-28T00:02:11.000Z,16.12
2017-09-28T00:04:39.137Z,18.40
2017-09-28T00:07:07.333Z,19.27
2017-09-28T00:09:35.488Z,18.48
2017-09-28T00:12:03.648Z,17.92
2017-09-28T00:14:31.797Z,17.55
2017-09-28T00:16:59.992Z,19.52
2017-09-28T00:19:28.145Z,16.48
2017-09-28T00:21:56.287Z,17.02
2017-09-28T00:24:24.558Z,17.33
2017-09-28T00:26:52.689Z,16.20
2017-09-28T00:29:20.872Z,17.00
2017-09-28T00:31:49.026Z,17.00
2017-09-28T00:34:17.208Z,18.25
2017-09-28T00:36:45.349Z,16.95
2017-09-28T00:39:13.526Z,18.23
2017-09-28T00:41:41.668Z,20.40
2017-09-28T00:44:09.830Z,18.60
2017-09-28T00:46:38.769Z,19.95
2017-09-28T00:49:06.916Z,20.40
2017-09-28T00:51:35.180Z,19.33
2017-09-28T00:54:03.328Z,18.15
2017-09-28T00:56:31.538Z,17.87
2017-09-28T00:58:59.680Z,18.23
2017-09-28T01:01:28.592Z,19.15
2017-09-28T01:03:56.764Z,19.45
2017-09-28T01:06:24.933Z,21.00
2017-09-28T01:08:53.907Z,18.92
2017-09-28T01:11:22.048Z,18.30
2017-09-28T01:13:50.185Z,17.70
2017-09-28T01:16:18.476Z,18.52
2017-09-28T01:18:46.621Z,19.37
2017-09-28T01:21:15.564Z,18.48
2017-09-28T01:23:44.148Z,19.70
2017-09-28T01:26:12.328Z,18.05
2017-09-28T01:28:40.478Z,17.52
2017-09-28T01:31:08.623Z,20.98
2017-09-28T01:33:36.844Z,19.73
2017-09-28T01:36:04.996Z,19.05
2017-09-28T01:38:33.173Z,18.05
2017-09-28T01:41:01.312Z,18.67
2017-09-28T01:43:30.228Z,17.70
2017-09-28T01:45:58.393Z,18.85
2017-09-28T01:48:26.537Z,18.08
2017-09-28T01:50:54.836Z,18.45
2017-09-28T01:53:23.035Z,17.25
2017-09-28T01:55:51.181Z,20.25
2017-09-28T01:58:19.325Z,18.87
2017-09-28T02:00:47.496Z,18.55
2017-09-28T02:03:15.649Z,19.73
2017-09-28T02:05:43.982Z,18.80
2017-09-28T02:08:12.131Z,18.08
2017-09-28T02:10:40.270Z,19.60
2017-09-28T02:13:08.439Z,17.48
2017-09-28T02:15:36.593Z,17.77
2017-09-28T02:18:04.748Z,19.75
2017-09-28T02:20:32.896Z,18.62
2017-09-28T02:23:01.957Z,19.30
2017-09-28T02:25:30.107Z,18.10
2017-09-28T02:27:58.298Z,18.60
2017-09-28T02:30:26.433Z,18.10
2017-09-28T02:32:54.597Z,18.50
2017-09-28T02:35:23.671Z,19.58
2017-09-28T02:37:51.815Z,19.12
2017-09-28T02:40:20.016Z,19.00
2017-09-28T02:42:48.167Z,19.20
2017-09-28T02:45:16.341Z,19.55
2017-09-28T02:47:44.484Z,18.95
2017-09-28T02:50:12.780Z,19.62
2017-09-28T02:52:40.927Z,19.80
2017-09-28T02:55:09.070Z,22.48
2017-09-28T02:57:38.062Z,23.08
2017-09-28T03:00:06.215Z,21.27
2017-09-28T03:02:34.374Z,20.88
2017-09-28T03:05:02.537Z,21.42
2017-09-28T03:07:30.698Z,23.17
2017-09-28T03:09:58.972Z,21.12
2017-09-28T03:12:27.117Z,20.05
2017-09-28T03:14:56.030Z,21.67
2017-09-28T03:17:24.229Z,20.70
2017-09-28T03:19:52.380Z,20.88
2017-09-28T03:22:20.571Z,20.65
2017-09-28T03:24:48.732Z,25.90
2017-09-28T03:27:16.885Z,24.23
2017-09-28T03:29:45.819Z,22.35
2017-09-28T03:32:13.960Z,23.58
2017-09-28T03:34:42.242Z,25.23
2017-09-28T03:37:10.383Z,24.87
2017-09-28T03:39:39.345Z,23.10
2017-09-28T03:42:07.504Z,21.95
2017-09-28T03:44:35.652Z,20.75
2017-09-28T03:47:03.861Z,22.83
2017-09-28T03:49:32.072Z,22.83
2017-09-28T03:52:00.252Z,24.83
2017-09-28T03:54:29.172Z,24.25
2017-09-28T03:56:57.344Z,24.42
2017-09-28T03:59:25.493Z,23.75
2017-09-28T04:01:53.640Z,24.48
2017-09-28T04:04:21.921Z,24.50
2017-09-28T04:06:50.072Z,23.65
2017-09-28T04:09:18.280Z,25.40
2017-09-28T04:11:47.189Z,24.60
2017-09-28T04:14:16.163Z,23.70
2017-09-28T04:16:44.340Z,23.00
2017-09-28T04:19:13.249Z,25.00
2017-09-28T04:21:41.422Z,26.10
2017-09-28T04:24:09.561Z,25.95
2017-09-28T04:26:37.848Z,24.75
2017-09-28T04:29:06.753Z,23.55
2017-09-28T04:31:34.946Z,24.87
2017-09-28T04:34:03.077Z,24.98
2017-09-28T04:36:32.126Z,24.27
2017-09-28T04:39:00.268Z,25.95
2017-09-28T04:41:28.412Z,25.55
2017-09-28T04:43:56.600Z,25.35
2017-09-28T04:46:25.516Z,24.67
2017-09-28T04:48:53.678Z,26.48
2017-09-28T04:51:22.661Z,25.52
2017-09-28T04:53:50.995Z,23.60
2017-09-28T04:56:19.148Z,23.05
2017-09-28T04:58:47.334Z,23.27
2017-09-28T05:01:15.485Z,23.65
2017-09-28T05:03:43.641Z,24.90
2017-09-28T05:06:12.609Z,22.42
2017-09-28T05:08:40.766Z,22.67
2017-09-28T05:11:09.141Z,23.62
2017-09-28T05:13:37.293Z,21.58
2017-09-28T05:16:05.456Z,24.08
2017-09-28T05:18:33.746Z,24.85
2017-09-28T05:21:02.662Z,25.17
2017-09-28T05:23:30.854Z,24.58
2017-09-28T05:25:58.999Z,22.58
2017-09-28T05:28:27.295Z,25.12
2017-09-28T05:30:55.450Z,23.62
2017-09-28T05:33:23.666Z,24.15
2017-09-28T05:35:52.585Z,21.87
2017-09-28T05:38:20.764Z,24.08
2017-09-28T05:40:48.913Z,26.42
2017-09-28T05:43:17.062Z,22.17
2017-09-28T05:45:45.239Z,21.67
2017-09-28T05:48:13.386Z,20.90
2017-09-28T05:50:41.664Z,22.05
2017-09-28T05:53:09.816Z,22.05
2017-09-28T05:55:37.978Z,21.62
2017-09-28T05:58:06.142Z,21.40
2017-09-28T06:00:34.304Z,23.40
2017-09-28T06:03:02.493Z,21.62
2017-09-28T06:05:30.648Z,22.77
2017-09-28T06:07:58.805Z,23.17
2017-09-28T06:10:27.856Z,21.95
2017-09-28T06:12:56.976Z,24.83
2017-09-28T06:15:25.172Z,21.77
2017-09-28T06:17:53.333Z,23.65
2017-09-28T06:20:21.601Z,23.55
2017-09-28T06:22:49.785Z,25.55
2017-09-28T06:25:18.169Z,22.30
2017-09-28T06:27:47.198Z,21.70
2017-09-28T06:30:15.384Z,23.05
2017-09-28T06:32:43.529Z,22.62
2017-09-28T06:35:11.686Z,22.10
2017-09-28T06:37:39.973Z,24.40
2017-09-28T06:40:08.140Z,21.25
2017-09-28T06:42:37.053Z,23.08
2017-09-28T06:45:05.227Z,22.50
2017-09-28T06:47:33.608Z,22.13
2017-09-28T06:50:01.789Z,22.67
2017-09-28T06:52:29.958Z,23.65
2017-09-28T06:54:58.250Z,23.85
2017-09-28T06:57:26.409Z,22.52
2017-09-28T06:59:54.543Z,26.77
2017-09-28T07:02:23.123Z,24.12
2017-09-28T07:04:51.277Z,23.67
2017-09-28T07:07:19.449Z,22.37
2017-09-28T07:09:47.608Z,21.23
2017-09-28T07:12:15.889Z,21.98
2017-09-28T07:14:44.048Z,22.27
2017-09-28T07:17:12.212Z,22.15
2017-09-28T07:19:40.371Z,24.77
2017-09-28T07:22:08.554Z,22.58
2017-09-28T07:24:36.716Z,23.10
2017-09-28T07:27:04.861Z,22.17
2017-09-28T07:29:33.163Z,23.05
2017-09-28T07:32:02.094Z,22.05
2017-09-28T07:34:30.284Z,21.17
2017-09-28T07:36:58.441Z,24.35
2017-09-28T07:39:26.647Z,20.58
2017-09-28T07:41:54.808Z,22.48
2017-09-28T07:44:22.991Z,22.55
2017-09-28T07:46:51.187Z,27.92
2017-09-28T07:49:20.113Z,22.40
2017-09-28T07:51:48.392Z,23.20
2017-09-28T07:54:16.541Z,24.70
2017-09-28T07:56:44.733Z,26.33
2017-09-28T07:59:12.892Z,25.42
2017-09-28T08:01:41.868Z,23.52
2017-09-28T08:04:10.807Z,24.42
2017-09-28T08:06:38.961Z,22.40
2017-09-28T08:09:07.253Z,21.73
2017-09-28T08:11:35.389Z,21.15
2017-09-28T08:14:04.325Z,20.45
2017-09-28T08:16:32.465Z,20.90
2017-09-28T08:19:00.680Z,19.80
2017-09-28T08:21:29.171Z,19.25
2017-09-28T08:23:59.714Z,21.25
2017-09-28T08:26:27.892Z,19.85
2017-09-28T08:28:56.865Z,20.00
2017-09-28T08:31:25.576Z,20.50
2017-09-28T08:33:54.083Z,20.17
2017-09-28T08:36:23.150Z,20.75
2017-09-28T08:38:51.710Z,19.35
2017-09-28T08:41:19.864Z,20.60
2017-09-28T08:43:48.040Z,19.20
2017-09-28T08:46:16.193Z,20.35
2017-09-28T08:48:44.373Z,18.75
2017-09-28T08:51:12.576Z,20.25
2017-09-28T08:53:40.844Z,18.65
2017-09-28T08:56:08.997Z,18.42
2017-09-28T08:58:37.201Z,20.27
2017-09-28T09:01:05.339Z,20.25
2017-09-28T09:03:33.520Z,18.55
2017-09-28T09:06:02.228Z,18.35
2017-09-28T09:08:30.373Z,22.75
2017-09-28T09:10:58.545Z,17.08
2017-09-28T09:13:26.709Z,17.92
2017-09-28T09:15:55.770Z,16.80
2017-09-28T09:18:23.928Z,17.77
2017-09-28T09:20:52.096Z,18.30
2017-09-28T09:23:20.261Z,23.52
2017-09-28T09:25:48.457Z,19.25
2017-09-28T09:28:16.612Z,18.52
2017-09-28T09:30:44.788Z,17.37
2017-09-28T09:33:13.901Z,17.23
2017-09-28T09:35:42.050Z,17.50
2017-09-28T09:38:10.225Z,19.60
2017-09-28T09:40:38.382Z,21.33
2017-09-28T09:43:06.573Z,18.70
2017-09-28T09:45:34.717Z,16.08
2017-09-28T09:48:02.872Z,16.33
2017-09-28T09:50:31.161Z,13.35
2017-09-28T09:52:59.304Z,14.50
2017-09-28T09:55:28.253Z,15.77
2017-09-28T09:57:56.405Z,15.60
2017-09-28T10:00:24.608Z,14.68
2017-09-28T10:02:52.801Z,13.85
2017-09-28T10:05:21.092Z,14.75
2017-09-28T10:07:49.250Z,15.73
2017-09-28T10:10:17.437Z,15.38
2017-09-28T10:12:45.605Z,14.50
2017-09-28T10:15:13.797Z,12.95
2017-09-28T10:17:42.708Z,13.27
2017-09-28T10:20:10.900Z,17.35
2017-09-28T10:22:39.065Z,13.50
2017-09-28T10:25:07.348Z,13.48
2017-09-28T10:27:35.514Z,13.10
2017-09-28T10:30:03.656Z,14.13
2017-09-28T10:32:32.616Z,13.25
2017-09-28T10:35:00.765Z,14.00
2017-09-28T10:37:28.912Z,12.82
2017-09-28T10:39:57.222Z,13.88
2017-09-28T10:42:25.360Z,12.43
2017-09-28T10:44:53.516Z,11.80
2017-09-28T10:47:22.492Z,11.60
2017-09-28T10:49:50.693Z,12.98
2017-09-28T10:52:18.847Z,13.68
2017-09-28T10:54:47.000Z,13.00
2017-09-28T10:57:15.175Z,12.85
2017-09-28T10:59:43.357Z,13.20
2017-09-28T11:02:11.493Z,11.30
2017-09-28T11:04:39.641Z,16.37
2017-09-28T11:07:07.805Z,10.07
2017-09-28T11:09:37.323Z,12.00
2017-09-28T11:12:05.596Z,11.63
2017-09-28T11:14:33.748Z,11.77
2017-09-28T11:17:02.704Z,12.25
2017-09-28T11:19:30.857Z,14.98
2017-09-28T11:21:59.021Z,12.77
2017-09-28T11:24:27.204Z,11.65
2017-09-28T11:26:55.344Z,9.00
2017-09-28T11:29:24.386Z,8.73
2017-09-28T11:31:52.530Z,9.35
2017-09-28T11:34:20.708Z,9.65
2017-09-28T11:36:48.856Z,9.15
2017-09-28T11:39:17.813Z,11.43
2017-09-28T11:41:45.956Z,10.63
2017-09-28T11:44:14.132Z,9.50
2017-09-28T11:46:42.281Z,10.93
2017-09-28T11:49:11.361Z,10.47
2017-09-28T11:51:40.280Z,9.60
2017-09-28T11:54:08.422Z,10.05
2017-09-28T11:56:37.461Z,10.07
2017-09-28T11:59:05.592Z,13.73
2017-09-28T12:01:34.527Z,8.97
2017-09-28T12:04:02.677Z,8.43
2017-09-28T12:06:30.844Z,9.03
2017-09-28T12:08:59.746Z,8.10
2017-09-28T12:11:28.034Z,8.10
2017-09-28T12:13:56.157Z,8.67
2017-09-28T12:16:24.320Z,8.00
2017-09-28T12:18:52.490Z,10.87
2017-09-28T12:21:20.760Z,7.47
2017-09-28T12:23:48.902Z,8.60
2017-09-28T12:26:17.045Z,7.50
2017-09-28T12:28:45.967Z,7.97
2017-09-28T12:31:14.093Z,7.80
2017-09-28T12:33:42.273Z,9.30
2017-09-28T12:36:12.370Z,9.70
2017-09-28T12:38:40.569Z,9.07
2017-09-28T12:41:08.808Z,8.20
2017-09-28T12:43:36.938Z,7.30
2017-09-28T12:46:05.836Z,6.00
2017-09-28T12:48:33.988Z,6.43
2017-09-28T12:51:02.218Z,5.93
2017-09-28T12:53:30.396Z,6.40
2017-09-28T12:55:58.553Z,5.73
2017-09-28T12:58:26.744Z,6.50
2017-09-28T13:00:54.897Z,6.83
2017-09-28T13:03:23.099Z,8.27
2017-09-28T13:05:51.249Z,6.43
2017-09-28T13:08:19.416Z,6.60
2017-09-28T13:10:47.557Z,7.30
2017-09-28T13:13:16.504Z,6.87
2017-09-28T13:15:45.064Z,6.17
2017-09-28T13:18:13.232Z,6.00
2017-09-28T13:20:41.526Z,6.30
2017-09-28T13:23:09.665Z,6.83
2017-09-28T13:25:37.864Z,6.17
2017-09-28T13:28:06.021Z,10.47
2017-09-28T13:30:34.161Z,11.40
2017-09-28T13:33:03.241Z,8.70
2017-09-28T13:35:31.433Z,8.27
2017-09-28T13:38:00.369Z,7.07
2017-09-28T13:40:28.574Z,9.83
2017-09-28T13:42:56.731Z,8.03
2017-09-28T13:45:24.880Z,8.50
2017-09-28T13:47:53.143Z,8.60
2017-09-28T13:50:21.285Z,6.97
2017-09-28T13:52:49.528Z,7.53
2017-09-28T13:55:18.134Z,8.03
2017-09-28T13:57:46.299Z,7.43
2017-09-28T14:00:14.469Z,7.30
2017-09-28T14:02:42.626Z,6.40
2017-09-28T14:05:10.808Z,7.47
2017-09-28T14:07:38.940Z,7.50
2017-09-28T14:10:07.145Z,6.90
2017-09-28T14:12:35.321Z,6.53
2017-09-28T14:15:03.507Z,7.47
2017-09-28T14:17:31.695Z,6.63
2017-09-28T14:19:59.836Z,6.43
2017-09-28T14:22:28.052Z,7.17
2017-09-28T14:24:56.213Z,6.20
2017-09-28T14:27:24.489Z,5.67
2017-09-28T14:29:52.648Z,6.47
2017-09-28T14:32:20.843Z,6.00
2017-09-28T14:34:48.998Z,6.03
2017-09-28T14:37:17.509Z,6.00
2017-09-28T14:39:45.861Z,5.23
2017-09-28T14:42:14.714Z,6.10
2017-09-28T14:44:42.949Z,5.40
2017-09-28T14:47:11.096Z,5.73
2017-09-28T14:49:39.381Z,7.33
2017-09-28T14:52:07.755Z,5.97
2017-09-28T14:54:35.948Z,6.30
2017-09-28T14:57:04.180Z,5.67
2017-09-28T14:59:32.341Z,5.70
2017-09-28T15:02:00.566Z,5.93
2017-09-28T15:04:29.604Z,5.57
2017-09-28T15:06:57.769Z,5.93
2017-09-28T15:09:25.932Z,5.87
2017-09-28T15:11:54.858Z,6.33
2017-09-28T15:14:23.401Z,6.70
2017-09-28T15:16:51.561Z,5.50
2017-09-28T15:19:19.723Z,6.13
2017-09-28T15:21:47.913Z,6.63
2017-09-28T15:24:16.087Z,6.60
2017-09-28T15:26:44.248Z,6.30
2017-09-28T15:29:12.453Z,6.17
2017-09-28T15:31:41.353Z,6.30
2017-09-28T15:34:09.500Z,7.00
2017-09-28T15:36:37.811Z,7.00
2017-09-28T15:39:06.703Z,7.47
2017-09-28T15:41:34.894Z,6.70
2017-09-28T15:44:03.051Z,6.80
2017-09-28T15:46:31.250Z,7.20
2017-09-28T15:49:14.804Z,8.83
2017-09-28T15:51:43.212Z,6.63
2017-09-28T15:54:11.477Z,7.13
2017-09-28T15:56:39.633Z,7.07
2017-09-28T15:59:07.838Z,6.83
2017-09-28T16:01:35.983Z,8.90
2017-09-28T16:04:05.058Z,7.47
2017-09-28T16:06:33.238Z,7.20
2017-09-28T16:09:01.422Z,7.80
2017-09-28T16:11:29.588Z,8.50
2017-09-28T16:13:57.749Z,7.23
2017-09-28T16:16:25.934Z,7.57
2017-09-28T16:18:54.092Z,6.87
2017-09-28T16:21:22.400Z,6.73
2017-09-28T16:23:50.538Z,7.07
2017-09-28T16:26:19.448Z,7.87
2017-09-28T16:28:47.621Z,7.87
2017-09-28T16:31:15.773Z,6.73
2017-09-28T16:33:43.968Z,7.37
2017-09-28T16:36:25.867Z,11.73
2017-09-28T16:38:56.742Z,7.17
2017-09-28T16:41:25.649Z,8.50
2017-09-28T16:43:56.032Z,6.95
2017-09-28T16:46:24.985Z,7.05
2017-09-28T16:48:53.862Z,9.13
2017-09-28T16:51:23.584Z,7.85
2017-09-28T16:53:51.757Z,9.95
2017-09-28T16:56:20.034Z,7.47
2017-09-28T16:58:48.204Z,8.55
2017-09-28T17:01:16.428Z,7.65
2017-09-28T17:03:44.621Z,7.90
2017-09-28T17:06:13.588Z,11.55
2017-09-28T17:08:41.749Z,9.23
2017-09-28T17:11:09.900Z,8.20
2017-09-28T17:13:38.201Z,9.52
2017-09-28T17:16:06.349Z,9.52
2017-09-28T17:18:34.494Z,8.75
2017-09-28T17:21:02.797Z,8.30
2017-09-28T17:23:30.962Z,7.50
2017-09-28T17:25:59.149Z,9.55
2017-09-28T17:28:27.297Z,7.10
2017-09-28T17:30:55.496Z,8.07
2017-09-28T17:33:23.649Z,9.15
2017-09-28T17:35:51.962Z,8.73
2017-09-28T17:38:20.123Z,8.25
2017-09-28T17:40:49.058Z,8.55
2017-09-28T17:43:17.262Z,8.13
2017-09-28T17:45:45.415Z,7.75
2017-09-28T17:48:14.372Z,7.30
2017-09-28T17:50:42.517Z,8.60
2017-09-28T17:53:10.677Z,9.02
2017-09-28T17:55:39.009Z,10.05
2017-09-28T17:58:07.216Z,9.35
2017-09-28T18:00:35.382Z,8.90
2017-09-28T18:03:03.534Z,6.37
2017-09-28T18:05:31.756Z,8.07
2017-09-28T18:07:59.887Z,8.90
2017-09-28T18:10:28.100Z,7.72
2017-09-28T18:12:56.265Z,8.07
2017-09-28T18:15:24.494Z,9.85
2017-09-28T18:17:52.685Z,8.60
2017-09-28T18:20:20.849Z,8.48
2017-09-28T18:22:50.639Z,7.95
2017-09-28T18:25:22.652Z,8.85
2017-09-28T18:27:51.976Z,10.43
2017-09-28T18:30:20.232Z,8.73
2017-09-28T18:32:48.464Z,8.68
2017-09-28T18:35:16.644Z,8.20
2017-09-28T18:37:44.901Z,9.98
2017-09-28T18:40:15.190Z,9.00
2017-09-28T18:42:57.335Z,8.77
2017-09-28T18:45:25.706Z,9.85
2017-09-28T18:47:53.932Z,9.00
2017-09-28T18:50:22.159Z,8.30
2017-09-28T18:52:50.355Z,9.18
2017-09-28T18:55:33.623Z,8.82
2017-09-28T18:58:05.195Z,9.35
2017-09-28T19:00:33.408Z,9.77
2017-09-28T19:03:01.587Z,8.30
2017-09-28T19:05:29.770Z,8.82
2017-09-28T19:07:57.973Z,9.25
2017-09-28T19:10:26.153Z,9.73
2017-09-28T19:12:55.152Z,9.25
2017-09-28T19:15:23.302Z,9.10
2017-09-28T19:17:51.523Z,8.60
2017-09-28T19:20:19.687Z,8.50
2017-09-28T19:22:47.917Z,8.48
2017-09-28T19:25:16.123Z,8.95
2017-09-28T19:27:44.327Z,9.30
2017-09-28T19:30:12.516Z,9.20
2017-09-28T19:32:40.698Z,12.35
2017-09-28T19:35:08.849Z,11.38
2017-09-28T19:37:37.031Z,9.40
2017-09-28T19:40:05.531Z,12.20
2017-09-28T19:42:33.717Z,10.20
2017-09-28T19:45:02.686Z,11.85
2017-09-28T19:47:30.858Z,9.30
2017-09-28T19:49:59.055Z,9.60
2017-09-28T19:52:27.976Z,11.20
2017-09-28T19:54:56.136Z,9.80
2017-09-28T19:57:24.427Z,11.88
2017-09-28T19:59:52.570Z,11.80
2017-09-28T20:02:21.572Z,11.00
2017-09-28T20:04:50.505Z,11.55
2017-09-28T20:07:18.691Z,10.30
2017-09-28T20:09:46.853Z,10.77
2017-09-28T20:12:14.990Z,10.00
2017-09-28T20:14:44.049Z,9.60
2017-09-28T20:17:12.190Z,9.05
2017-09-28T20:19:40.462Z,10.65
2017-09-28T20:22:08.621Z,12.02
2017-09-28T20:24:36.805Z,11.90
2017-09-28T20:27:04.929Z,9.98
2017-09-28T20:29:33.090Z,10.32
2017-09-28T20:32:01.246Z,11.10
2017-09-28T20:34:29.389Z,10.32
2017-09-28T20:36:57.551Z,12.93
2017-09-28T20:39:25.715Z,10.02
2017-09-28T20:41:53.895Z,10.10
2017-09-28T20:44:22.816Z,14.05
2017-09-28T20:46:50.958Z,10.68
2017-09-28T20:49:19.906Z,9.85
2017-09-28T20:51:48.049Z,12.70
2017-09-28T20:54:16.358Z,10.90
2017-09-28T20:56:44.482Z,10.15
2017-09-28T20:59:12.650Z,8.95
2017-09-28T21:01:40.789Z,10.07
2017-09-28T21:04:09.086Z,15.80
2017-09-28T21:06:37.236Z,11.20
2017-09-28T21:09:05.410Z,12.48
2017-09-28T21:11:33.566Z,10.32
2017-09-28T21:14:01.710Z,10.50
2017-09-28T21:16:29.995Z,10.27
2017-09-28T21:18:58.183Z,11.95
2017-09-28T21:21:26.328Z,9.95
2017-09-28T21:23:54.489Z,11.07
2017-09-28T21:26:22.669Z,10.73
2017-09-28T21:28:51.702Z,10.55
2017-09-28T21:31:19.858Z,11.48
2017-09-28T21:33:48.037Z,10.10
2017-09-28T21:36:16.168Z,10.43
2017-09-28T21:38:45.089Z,12.02
2017-09-28T21:41:13.259Z,10.15
2017-09-28T21:43:41.413Z,10.43
2017-09-28T21:46:10.459Z,10.73
2017-09-28T21:48:38.605Z,13.02
2017-09-28T21:51:06.781Z,9.88
2017-09-28T21:53:34.922Z,10.35
2017-09-28T21:56:03.821Z,13.13
2017-09-28T21:58:32.000Z,11.90
2017-09-28T22:01:00.288Z,12.98
2017-09-28T22:03:29.228Z,18.45
2017-09-28T22:05:57.374Z,11.82
2017-09-28T22:08:25.563Z,11.82
2017-09-28T22:10:53.701Z,12.85
2017-09-28T22:13:21.888Z,11.32
2017-09-28T22:15:50.065Z,12.75
2017-09-28T22:18:18.350Z,10.98
2017-09-28T22:20:46.487Z,10.82
2017-09-28T22:23:14.625Z,11.60
2017-09-28T22:25:42.812Z,12.73
2017-09-28T22:28:10.948Z,11.35
2017-09-28T22:30:39.079Z,15.02
2017-09-28T22:33:07.361Z,11.48
2017-09-28T22:35:35.520Z,15.82
2017-09-28T22:38:03.680Z,12.00
2017-09-28T22:40:32.613Z,10.45
2017-09-28T22:43:00.784Z,10.98
2017-09-28T22:45:28.952Z,11.07
2017-09-28T22:47:57.088Z,12.13
2017-09-28T22:50:25.388Z,11.25
2017-09-28T22:52:53.530Z,11.25
2017-09-28T22:55:21.697Z,10.80
2017-09-28T22:57:49.843Z,11.65
2017-09-28T23:00:17.993Z,10.70
2017-09-28T23:02:46.145Z,10.80
2017-09-28T23:05:14.296Z,12.30
2017-09-28T23:07:42.440Z,16.05
2017-09-28T23:10:10.710Z,12.25
2017-09-28T23:12:38.868Z,11.77
2017-09-28T23:15:07.037Z,11.52
2017-09-28T23:17:35.165Z,10.90
2017-09-28T23:20:03.340Z,10.90
2017-09-28T23:22:31.469Z,10.57
2017-09-28T23:24:59.614Z,10.38
2017-09-28T23:27:27.895Z,11.23
2017-09-28T23:29:56.038Z,11.32
2017-09-28T23:32:24.998Z,11.15
2017-09-28T23:34:53.135Z,11.23
2017-09-28T23:37:21.300Z,11.73
2017-09-28T23:39:49.441Z,11.30
2017-09-28T23:42:17.709Z,12.10
2017-09-28T23:44:45.868Z,12.40
2017-09-28T23:47:14.013Z,11.18
2017-09-28T23:49:42.176Z,12.90
2017-09-28T23:52:10.314Z,12.43
2017-09-28T23:54:38.499Z,13.40
2017-09-28T23:57:07.424Z,11.60
2017-09-28T23:59:35.719Z,11.55
